Terminal Aerodrome Forecast
Issued by NWS Springfield, MO

Home | Current Version | Previous Version | Text Only | Print | Product List | Glossary On
Versions: 1 2 3 4 5 6 7 8 9 10 11 12 13 14 15 16 17 18 19 20 21 22 23 24 25 26 27 28
141
FTUS43 KSGF 211720
TAFSGF
TAF
KSGF 211720Z 2118/2218 30009KT P6SM VCSH SCT008 OVC012
     FM220100 36012KT 6SM BR OVC012
      TEMPO 2201/2203 4SM SHRA OVC009
     FM220500 01013G23KT 3SM SHRA OVC008
     FM221100 03013KT P6SM VCSH OVC007=

USA.gov is the U.S. government's official web portal to all federal, state and local government web resources and services.